Time;durP1;ratioP1;P1;durP2;ratioP2;P2;SDS_P1;SDS_P2;PMS_P1;PMS_P2;Temp;Humidity;BMP_temperature;BMP_pressure;BME280_temperature;BME280_humidity;BME280_pressure;Samples;Min_cycle;Max_cycle;Signal;HPM_P1;HPM_P2
2022/04/19 00:00:42;;;;;;;3.40;1.33;;;4.60;99.90;;;;;;4895505;29;19965;-48
2022/04/19 00:03:10;;;;;;;3.03;1.83;;;4.50;99.90;;;;;;4896141;29;20048;-47
2022/04/19 00:05:37;;;;;;;2.25;1.92;;;4.60;99.90;;;;;;4896274;29;20119;-47
2022/04/19 00:08:05;;;;;;;;;;;4.60;99.90;;;;;;4896502;29;20553;-47
2022/04/19 00:10:32;;;;;;;3.30;1.42;;;4.60;99.90;;;;;;4895144;29;19994;-48
2022/04/19 00:13:01;;;;;;;2.50;1.42;;;4.50;99.90;;;;;;4896228;29;20560;-47
2022/04/19 00:15:29;;;;;;;4.18;1.27;;;4.50;99.90;;;;;;4896176;29;20041;-49
2022/04/19 00:17:57;;;;;;;2.97;1.50;;;4.50;99.90;;;;;;4895365;29;20135;-47
2022/04/19 00:20:25;;;;;;;6.43;1.20;;;4.50;99.90;;;;;;4878939;29;20052;-49
2022/04/19 00:22:52;;;;;;;2.38;1.30;;;4.40;99.90;;;;;;4896258;29;20062;-48
2022/04/19 00:25:19;;;;;;;2.25;1.38;;;4.40;99.90;;;;;;4899025;29;20049;-47
2022/04/19 00:27:46;;;;;;;3.08;1.15;;;4.30;99.90;;;;;;4896729;29;20662;-48
2022/04/19 00:30:13;;;;;;;1.80;1.42;;;4.30;99.90;;;;;;4882320;29;20041;-47
2022/04/19 00:32:40;;;;;;;3.15;1.35;;;4.20;99.90;;;;;;4899555;29;20075;-47
2022/04/19 00:35:10;;;;;;;2.60;1.38;;;4.20;99.90;;;;;;4879979;29;20510;-47
2022/04/19 00:37:38;;;;;;;4.18;1.80;;;4.20;99.90;;;;;;4899461;29;20068;-47
2022/04/19 00:40:07;;;;;;;4.47;1.80;;;4.20;99.90;;;;;;4882329;29;20045;-48
2022/04/19 00:42:35;;;;;;;3.58;1.77;;;4.20;99.90;;;;;;4897523;29;20041;-48
2022/04/19 00:45:05;;;;;;;3.25;1.80;;;4.10;99.90;;;;;;4882487;29;20063;-47
2022/04/19 00:47:32;;;;;;;3.08;1.60;;;4.10;99.90;;;;;;4882450;29;20060;-47
2022/04/19 00:50:04;;;;;;;2.55;1.83;;;4.20;99.90;;;;;;4879962;29;20060;-47
2022/04/19 00:52:35;;;;;;;3.50;1.67;;;4.00;99.90;;;;;;4882415;29;20063;-50
2022/04/19 00:55:03;;;;;;;2.85;1.90;;;4.00;99.90;;;;;;4882283;29;20064;-48
2022/04/19 00:57:36;;;;;;;3.33;2.08;;;4.00;99.90;;;;;;4882510;29;20088;-47
2022/04/19 01:00:08;;;;;;;4.38;2.25;;;3.90;99.90;;;;;;4879313;29;20505;-47
2022/04/19 01:02:39;;;;;;;4.88;2.28;;;3.90;99.90;;;;;;4882267;29;20395;-49
2022/04/19 01:05:10;;;;;;;7.15;2.17;;;3.80;99.90;;;;;;4882325;29;20056;-48
2022/04/19 01:07:37;;;;;;;;;;;3.80;99.90;;;;;;4882086;29;20543;-47
2022/04/19 01:10:07;;;;;;;4.32;2.40;;;3.70;99.90;;;;;;4881758;29;19923;-48
2022/04/19 01:15:21;;;;;;;5.40;2.30;;;3.60;99.90;;;;;;4882215;29;20144;-48
2022/04/19 01:18:11;;;;;;;3.90;2.33;;;3.30;99.90;;;;;;4879579;29;20060;-49
2022/04/19 01:20:41;;;;;;;2.67;1.77;;;3.20;99.90;;;;;;4881591;29;20068;-47
2022/04/19 01:23:18;;;;;;;4.32;2.65;;;3.00;99.90;;;;;;4882026;29;20052;-47
2022/04/19 01:25:45;;;;;;;3.72;2.65;;;3.00;99.90;;;;;;4881395;29;20581;-47
2022/04/19 01:28:11;;;;;;;5.43;2.80;;;3.00;99.90;;;;;;4881578;29;20040;-48
2022/04/19 01:30:42;;;;;;;3.65;2.40;;;3.20;99.90;;;;;;4898189;29;20502;-47
2022/04/19 01:33:11;;;;;;;3.60;2.33;;;3.30;99.90;;;;;;4881805;29;20045;-50
2022/04/19 01:35:39;;;;;;;4.13;2.40;;;3.30;99.90;;;;;;4880619;29;20045;-47
2022/04/19 01:38:06;;;;;;;4.95;2.80;;;3.40;99.90;;;;;;4881607;29;20055;-47
2022/04/19 01:40:36;;;;;;;3.45;2.45;;;3.40;99.90;;;;;;4881319;29;20072;-47
2022/04/19 01:43:06;;;;;;;4.30;2.42;;;3.40;99.90;;;;;;4880866;29;20080;-47
2022/04/19 01:45:41;;;;;;;5.03;2.42;;;3.50;99.90;;;;;;4881420;29;20048;-47
2022/04/19 01:48:15;;;;;;;3.75;2.17;;;3.50;99.90;;;;;;4880928;29;20079;-48
2022/04/19 01:50:42;;;;;;;4.72;2.05;;;3.50;99.90;;;;;;4897771;29;20045;-47
2022/04/19 01:53:08;;;;;;;4.85;2.45;;;3.60;99.90;;;;;;4880251;29;20041;-47
2022/04/19 01:55:35;;;;;;;5.23;1.80;;;3.60;99.90;;;;;;4897625;29;20040;-47
2022/04/19 01:58:09;;;;;;;5.80;2.15;;;2.80;99.90;;;;;;4880959;29;20338;-48
2022/04/19 02:00:39;;;;;;;3.53;2.22;;;3.20;99.90;;;;;;4877647;29;20048;-48
2022/04/19 02:03:09;;;;;;;4.53;1.67;;;3.10;99.90;;;;;;4880782;29;20049;-47
2022/04/19 02:05:36;;;;;;;2.20;1.17;;;2.90;99.90;;;;;;4880624;29;20100;-47
2022/04/19 02:08:06;;;;;;;3.72;1.65;;;2.80;99.90;;;;;;4880612;29;20463;-47
2022/04/19 02:10:35;;;;;;;3.50;1.58;;;2.80;99.90;;;;;;4880006;29;20087;-48
2022/04/19 02:13:03;;;;;;;;;;;2.80;99.90;;;;;;4881054;29;20048;-48
2022/04/19 02:15:36;;;;;;;1.70;1.52;;;2.80;99.90;;;;;;4897476;29;19923;-47
2022/04/19 02:18:20;;;;;;;3.55;1.55;;;2.90;99.90;;;;;;4877356;29;20052;-47
2022/04/19 02:20:47;;;;;;;4.53;1.75;;;2.90;99.90;;;;;;4880569;29;20056;-47
2022/04/19 02:23:13;;;;;;;2.78;1.92;;;3.00;99.90;;;;;;4897656;29;20048;-47
2022/04/19 02:25:41;;;;;;;9.13;2.10;;;3.00;99.90;;;;;;4897855;29;20049;-47
2022/04/19 02:28:12;;;;;;;4.28;1.65;;;3.00;99.90;;;;;;4897573;23;20044;-52
2022/04/19 02:30:50;;;;;;;3.63;1.63;;;3.00;99.90;;;;;;4883981;29;20044;-50
2022/04/19 02:33:24;;;;;;;2.05;1.30;;;3.00;99.90;;;;;;4896610;29;20505;-50
2022/04/19 02:35:54;;;;;;;4.15;1.80;;;2.90;99.90;;;;;;4903003;29;20044;-52
2022/04/19 02:38:22;;;;;;;3.80;1.75;;;2.90;99.90;;;;;;4903824;29;20060;-51
2022/04/19 02:40:50;;;;;;;3.63;1.75;;;2.80;99.90;;;;;;4898597;29;20131;-51
2022/04/19 02:43:17;;;;;;;4.28;1.75;;;2.90;99.90;;;;;;4899384;29;20095;-51
2022/04/19 02:45:46;;;;;;;4.00;1.92;;;2.90;99.90;;;;;;4898154;29;20044;-51
2022/04/19 02:48:21;;;;;;;3.53;1.90;;;2.90;99.90;;;;;;4896139;29;20103;-52
2022/04/19 02:50:52;;;;;;;6.25;1.75;;;2.90;99.90;;;;;;4894000;29;20048;-52
2022/04/19 02:53:19;;;;;;;3.53;1.90;;;2.90;99.90;;;;;;4898786;29;20135;-53
2022/04/19 02:55:45;;;;;;;4.10;2.00;;;2.90;99.90;;;;;;4916074;29;20442;-53
2022/04/19 02:58:12;;;;;;;3.92;1.90;;;2.90;99.90;;;;;;4914048;29;20047;-52
2022/04/19 03:00:39;;;;;;;3.92;2.17;;;2.80;99.90;;;;;;4915337;29;20046;-51
2022/04/19 03:03:09;;;;;;;2.55;1.75;;;2.60;99.90;;;;;;4899051;29;20044;-51
2022/04/19 03:05:39;;;;;;;5.10;2.17;;;2.60;99.90;;;;;;4898695;29;20048;-51
2022/04/19 03:08:07;;;;;;;3.78;2.08;;;2.60;99.90;;;;;;4910426;29;20048;-51
2022/04/19 03:10:35;;;;;;;3.22;2.00;;;2.60;99.90;;;;;;4898282;29;20071;-50
2022/04/19 03:13:02;;;;;;;10.48;2.03;;;2.60;99.90;;;;;;4915661;29;20040;-52
2022/04/19 03:15:34;;;;;;;2.85;1.90;;;2.70;99.90;;;;;;4898642;29;20082;-51
2022/04/19 03:18:02;;;;;;;;;;;2.80;99.90;;;;;;4898038;29;20040;-51
2022/04/19 03:20:32;;;;;;;4.57;2.60;;;2.90;99.90;;;;;;4898304;29;19954;-50
2022/04/19 03:28:40;;;;;;;3.38;2.22;;;3.00;99.90;;;;;;4892090;29;20047;-51
2022/04/19 03:31:07;;;;;;;2.50;1.77;;;2.90;99.90;;;;;;4898221;29;20080;-52
2022/04/19 03:33:36;;;;;;;4.13;2.08;;;2.90;99.90;;;;;;4895688;29;20100;-50
2022/04/19 03:36:03;;;;;;;3.70;1.60;;;2.80;99.90;;;;;;4895073;29;20040;-51
2022/04/19 03:38:31;;;;;;;4.78;2.05;;;2.80;99.90;;;;;;4898397;29;20127;-50
2022/04/19 03:40:58;;;;;;;4.50;1.98;;;2.90;99.90;;;;;;4914883;29;20126;-50
2022/04/19 03:43:25;;;;;;;2.88;1.75;;;2.90;99.90;;;;;;4897318;29;20505;-51
2022/04/19 03:45:52;;;;;;;;;;;3.00;99.90;;;;;;4898796;29;20138;-52
2022/04/19 03:48:19;;;;;;;5.63;2.90;;;3.10;99.90;;;;;;4898471;29;19945;-51
2022/04/19 03:50:46;;;;;;;4.13;2.65;;;3.10;99.90;;;;;;4896763;29;20138;-51
2022/04/19 03:53:14;;;;;;;4.55;2.65;;;3.20;99.90;;;;;;4897909;29;20139;-52
2022/04/19 03:55:41;;;;;;;6.07;2.47;;;3.20;99.90;;;;;;4915325;29;20040;-51
2022/04/19 03:58:08;;;;;;;5.70;2.78;;;3.20;99.90;;;;;;4895397;29;20047;-51
2022/04/19 04:00:35;;;;;;;4.32;2.58;;;3.30;99.90;;;;;;4901117;29;20044;-51
2022/04/19 04:03:02;;;;;;;5.72;3.13;;;3.30;99.90;;;;;;4902161;29;20080;-53
2022/04/19 04:05:30;;;;;;;6.35;2.38;;;3.30;99.90;;;;;;4901962;29;20541;-51
2022/04/19 04:07:58;;;;;;;4.65;2.70;;;3.30;99.90;;;;;;4900987;29;20103;-50
2022/04/19 04:10:27;;;;;;;5.93;2.67;;;3.30;99.90;;;;;;4901762;29;20055;-51
2022/04/19 04:12:54;;;;;;;5.20;2.42;;;3.30;99.90;;;;;;4918630;29;20056;-51
2022/04/19 04:15:21;;;;;;;5.07;2.97;;;3.30;99.90;;;;;;4899978;29;20041;-51
2022/04/19 04:17:48;;;;;;;3.70;2.50;;;3.30;99.90;;;;;;4901500;29;20036;-51
2022/04/19 04:20:15;;;;;;;5.97;2.70;;;3.30;99.90;;;;;;4900860;29;20044;-51
2022/04/19 04:22:42;;;;;;;5.15;3.05;;;3.20;99.90;;;;;;4899926;29;20531;-52
2022/04/19 04:25:09;;;;;;;4.03;2.60;;;3.20;99.90;;;;;;4901244;29;20154;-52
2022/04/19 04:27:37;;;;;;;4.78;2.70;;;3.20;99.90;;;;;;4898699;29;20055;-51
2022/04/19 04:30:06;;;;;;;5.20;2.95;;;3.20;99.90;;;;;;4901155;29;20419;-51
2022/04/19 04:32:39;;;;;;;12.00;2.90;;;3.20;99.90;;;;;;4900566;29;20059;-51
2022/04/19 04:35:07;;;;;;;4.40;1.98;;;3.20;99.90;;;;;;4901609;29;20058;-53
2022/04/19 04:37:33;;;;;;;6.00;3.00;;;3.10;99.90;;;;;;4901425;29;20135;-52
2022/04/19 04:40:03;;;;;;;6.13;2.97;;;3.20;99.90;;;;;;4901117;29;20111;-52
2022/04/19 04:42:30;;;;;;;;;;;3.20;99.90;;;;;;4911483;29;20511;-51
2022/04/19 04:45:07;;;;;;;4.55;2.78;;;3.20;99.90;;;;;;4901409;29;19934;-50
2022/04/19 04:50:20;;;;;;;4.35;2.80;;;3.20;99.90;;;;;;4899915;29;20139;-51
2022/04/19 04:52:48;;;;;;;7.22;3.53;;;3.20;99.90;;;;;;4901166;29;20435;-52
2022/04/19 04:55:14;;;;;;;6.85;3.60;;;3.20;99.90;;;;;;4900890;29;20063;-50
2022/04/19 04:57:42;;;;;;;5.90;3.00;;;3.20;99.90;;;;;;4900474;29;20511;-50
2022/04/19 05:00:11;;;;;;;4.57;3.42;;;3.20;99.90;;;;;;4900593;29;20048;-51
2022/04/19 05:02:49;;;;;;;4.95;3.08;;;3.30;99.90;;;;;;4900543;29;20048;-51
2022/04/19 05:05:16;;;;;;;6.53;3.15;;;3.40;99.90;;;;;;4899702;29;20052;-53
2022/04/19 05:07:43;;;;;;;7.97;3.40;;;3.40;99.90;;;;;;4900428;29;20099;-52
2022/04/19 05:10:10;;;;;;;6.25;3.95;;;3.50;99.90;;;;;;4899310;29;20127;-53
2022/04/19 05:12:37;;;;;;;7.35;3.55;;;3.50;99.90;;;;;;4899743;29;20450;-54
2022/04/19 05:15:04;;;;;;;4.30;2.55;;;3.60;99.90;;;;;;4900783;29;20068;-54
2022/04/19 05:17:35;;;;;;;5.45;3.28;;;3.70;99.90;;;;;;4900214;29;20421;-51
2022/04/19 05:20:03;;;;;;;5.25;3.67;;;3.70;99.90;;;;;;4900368;29;20052;-50
2022/04/19 05:22:34;;;;;;;6.63;4.13;;;3.80;99.90;;;;;;4898806;29;20068;-51
2022/04/19 05:25:01;;;;;;;6.78;4.30;;;3.80;99.90;;;;;;4900610;29;20050;-52
2022/04/19 05:27:28;;;;;;;6.18;3.63;;;3.90;99.90;;;;;;4900307;29;20115;-51
2022/04/19 05:29:55;;;;;;;5.78;3.45;;;3.90;99.90;;;;;;4896596;29;20458;-51
2022/04/19 05:32:22;;;;;;;8.30;2.47;;;4.00;99.90;;;;;;4899662;29;20044;-52
2022/04/19 05:34:49;;;;;;;5.25;3.08;;;4.10;99.90;;;;;;4900467;29;20135;-51
2022/04/19 05:37:16;;;;;;;5.38;3.30;;;4.10;99.90;;;;;;4898335;29;20053;-50
2022/04/19 05:39:43;;;;;;;9.15;4.00;;;4.20;99.90;;;;;;4899954;29;20770;-52
2022/04/19 05:42:11;;;;;;;4.93;2.85;;;4.20;99.90;;;;;;4899769;29;20517;-52
2022/04/19 05:44:39;;;;;;;7.10;3.75;;;4.30;99.90;;;;;;4900324;29;20048;-51
2022/04/19 05:47:07;;;;;;;8.35;3.60;;;4.50;99.90;;;;;;4898725;29;20048;-50
2022/04/19 05:49:34;;;;;;;11.90;4.35;;;4.50;99.90;;;;;;4899774;29;20075;-51
2022/04/19 05:52:01;;;;;;;8.30;4.05;;;4.60;99.90;;;;;;4899447;29;20611;-52
2022/04/19 05:54:28;;;;;;;10.93;4.07;;;4.60;99.90;;;;;;4899769;29;20473;-52
2022/04/19 05:56:57;;;;;;;5.40;3.53;;;4.60;99.90;;;;;;4899056;29;20433;-51
2022/04/19 05:59:24;;;;;;;7.88;3.85;;;4.80;99.90;;;;;;4899749;29;20063;-51
2022/04/19 06:04:52;;;;;;;7.50;3.58;;;5.10;99.90;;;;;;4895924;29;20083;-54
2022/04/19 06:07:24;;;;;;;6.68;3.30;;;5.20;99.90;;;;;;4899439;29;20142;-54
2022/04/19 06:09:55;;;;;;;10.57;5.07;;;5.20;99.90;;;;;;4899751;29;20625;-51
2022/04/19 06:12:21;;;;;;;7.93;3.67;;;5.20;99.90;;;;;;4915185;29;20160;-50
2022/04/19 06:14:52;;;;;;;7.72;3.70;;;5.30;99.90;;;;;;4899860;29;20535;-50
2022/04/19 06:17:22;;;;;;;5.72;3.50;;;5.10;99.90;;;;;;4899770;29;20143;-54
2022/04/19 06:19:50;;;;;;;4.82;3.50;;;5.10;99.90;;;;;;4897908;29;20469;-51
2022/04/19 06:22:17;;;;;;;6.25;3.60;;;5.00;99.90;;;;;;4897680;29;20048;-54
2022/04/19 06:24:55;;;;;;;9.13;3.40;;;5.00;99.90;;;;;;4899885;29;20052;-52
2022/04/19 06:27:22;;;;;;;6.97;4.07;;;5.00;99.90;;;;;;4899522;29;20079;-51
2022/04/19 06:29:53;;;;;;;;;;;5.10;99.90;;;;;;4898546;29;20052;-51
2022/04/19 06:32:20;;;;;;;8.95;3.65;;;5.10;99.90;;;;;;4899258;29;20017;-51
2022/04/19 06:34:53;;;;;;;6.15;3.67;;;5.20;99.90;;;;;;4899628;29;20047;-51
2022/04/19 06:37:22;;;;;;;8.82;3.47;;;5.30;99.90;;;;;;4898004;29;20550;-51
2022/04/19 06:40:04;;;;;;;13.23;3.75;;;5.40;99.90;;;;;;4898981;29;20044;-50
2022/04/19 06:42:32;;;;;;;6.38;3.70;;;5.60;99.90;;;;;;4899148;29;20099;-51
2022/04/19 06:45:14;;;;;;;8.13;3.33;;;5.60;99.90;;;;;;4910901;29;20053;-53
2022/04/19 06:47:47;;;;;;;5.45;3.30;;;5.60;99.90;;;;;;4898969;29;20481;-52
2022/04/19 06:50:14;;;;;;;5.32;3.20;;;5.80;99.90;;;;;;4898719;29;20063;-51
2022/04/19 06:52:43;;;;;;;7.43;3.22;;;5.80;99.90;;;;;;4899016;29;20421;-51
2022/04/19 06:55:30;;;;;;;6.30;3.40;;;5.90;99.90;;;;;;4914286;29;20139;-51
2022/04/19 06:57:57;;;;;;;6.50;3.20;;;5.90;99.90;;;;;;4915945;29;20413;-51
2022/04/19 07:00:24;;;;;;;11.27;3.83;;;6.00;99.90;;;;;;4898381;29;20058;-53
2022/04/19 07:02:51;;;;;;;10.27;3.45;;;6.10;99.90;;;;;;4894875;29;20044;-52
2022/04/19 07:05:47;;;;;;;6.13;2.97;;;6.20;99.90;;;;;;4910300;29;20152;-51
2022/04/19 07:08:14;;;;;;;7.18;3.08;;;6.30;99.90;;;;;;4898979;29;20511;-52
2022/04/19 07:10:42;;;;;;;;;;;6.30;99.90;;;;;;4898985;29;20075;-50
2022/04/19 07:13:44;;;;;;;6.55;3.50;;;6.40;99.90;;;;;;4897577;29;20482;-52
2022/04/19 07:16:21;;;;;;;4.67;3.30;;;6.50;99.90;;;;;;4898360;29;20040;-52
2022/04/19 07:18:49;;;;;;;6.18;3.30;;;6.70;99.90;;;;;;4898332;29;20390;-52
2022/04/19 07:27:07;;;;;;;6.40;3.30;;;7.20;99.90;;;;;;4910169;29;20505;-53
2022/04/19 07:29:34;;;;;;;5.20;3.13;;;7.30;99.90;;;;;;4896426;29;20139;-51
2022/04/19 07:32:02;;;;;;;12.20;3.47;;;7.50;99.90;;;;;;4895101;29;20044;-51
2022/04/19 07:34:56;;;;;;;5.10;3.25;;;7.60;99.90;;;;;;4911657;29;20131;-53
2022/04/19 07:37:23;;;;;;;8.50;3.20;;;7.70;99.90;;;;;;4896528;29;20581;-51
2022/04/19 07:39:51;;;;;;;8.93;3.50;;;7.70;99.90;;;;;;4896027;29;20504;-53
2022/04/19 07:42:18;;;;;;;;;;;7.80;99.90;;;;;;4898694;29;20044;-51
2022/04/19 07:44:45;;;;;;;5.22;3.08;;;7.80;99.90;;;;;;4898271;29;19927;-55
2022/04/19 07:47:14;;;;;;;8.82;3.30;;;7.80;99.90;;;;;;4896364;29;20051;-53
2022/04/19 07:49:42;;;;;;;4.95;2.88;;;7.90;99.90;;;;;;4897580;29;20064;-54
2022/04/19 07:52:09;;;;;;;4.88;2.95;;;8.00;99.90;;;;;;4898247;29;20048;-52
2022/04/19 07:54:37;;;;;;;7.35;3.28;;;8.20;99.90;;;;;;4912838;29;20123;-52
2022/04/19 07:57:04;;;;;;;6.82;3.78;;;8.30;99.90;;;;;;4898133;29;20103;-51
2022/04/19 07:59:31;;;;;;;6.50;2.75;;;8.20;99.90;;;;;;4897845;29;20048;-51
2022/04/19 08:01:58;;;;;;;5.68;2.90;;;8.20;99.90;;;;;;4915228;29;20048;-51
2022/04/19 08:04:25;;;;;;;3.90;2.72;;;8.30;99.90;;;;;;4894954;29;20064;-53
2022/04/19 08:06:53;;;;;;;7.80;3.25;;;8.30;99.90;;;;;;4910617;29;20048;-51
2022/04/19 08:09:20;;;;;;;5.40;2.90;;;7.90;99.90;;;;;;4897512;29;20155;-51
2022/04/19 08:11:50;;;;;;;5.70;2.67;;;8.50;99.90;;;;;;4914970;29;20048;-53
2022/04/19 08:14:16;;;;;;;4.53;2.58;;;8.60;99.90;;;;;;4896994;29;20045;-50
2022/04/19 08:16:44;;;;;;;;;;;8.90;99.90;;;;;;4897830;29;20048;-52
2022/04/19 08:19:11;;;;;;;4.22;2.78;;;9.10;99.90;;;;;;4898031;29;19927;-50
2022/04/19 08:21:37;;;;;;;4.97;2.45;;;9.20;99.90;;;;;;4896580;29;20119;-50
2022/04/19 08:24:05;;;;;;;4.43;2.50;;;9.30;99.90;;;;;;4896981;29;20048;-51
2022/04/19 08:26:32;;;;;;;3.35;2.30;;;9.30;99.90;;;;;;4897337;29;20044;-51
2022/04/19 08:28:59;;;;;;;6.22;2.63;;;9.30;99.90;;;;;;4909714;23;20163;-48
2022/04/19 08:31:27;;;;;;;4.30;2.47;;;9.40;99.90;;;;;;4893500;29;20043;-47
2022/04/19 08:33:54;;;;;;;5.30;2.88;;;9.50;99.90;;;;;;4895258;29;20048;-49
2022/04/19 08:36:23;;;;;;;5.50;2.85;;;9.60;99.90;;;;;;4901366;29;20157;-47
2022/04/19 08:38:50;;;;;;;4.38;3.00;;;9.70;99.90;;;;;;4932900;29;20346;-48
2022/04/19 08:41:21;;;;;;;5.68;2.70;;;9.80;99.90;;;;;;4897175;29;20044;-47
2022/04/19 08:43:51;;;;;;;4.65;2.67;;;9.80;99.90;;;;;;4896972;29;20044;-47
2022/04/19 08:46:18;;;;;;;3.92;2.83;;;9.90;99.90;;;;;;4917434;29;20044;-48
2022/04/19 08:48:47;;;;;;;4.20;2.53;;;9.90;99.90;;;;;;4915758;29;20059;-47
2022/04/19 08:51:16;;;;;;;4.85;2.80;;;9.90;99.90;;;;;;4917685;29;20060;-49
2022/04/19 08:59:26;;;;;;;5.55;2.55;;;10.30;99.90;;;;;;4917962;29;20390;-46
2022/04/19 09:01:52;;;;;;;6.00;2.72;;;10.50;99.90;;;;;;4917869;29;20471;-48
2022/04/19 09:04:22;;;;;;;5.32;2.90;;;10.70;99.90;;;;;;4917892;29;20504;-47
2022/04/19 09:06:54;;;;;;;4.97;2.95;;;10.70;99.90;;;;;;4913832;29;20489;-47
2022/04/19 09:09:23;;;;;;;7.95;3.15;;;10.80;99.90;;;;;;4917459;29;20075;-47
2022/04/19 09:12:04;;;;;;;4.07;2.65;;;10.90;99.90;;;;;;4917743;29;20040;-50
2022/04/19 09:14:31;;;;;;;6.97;3.10;;;11.10;99.90;;;;;;4916842;29;20048;-47
2022/04/19 09:17:04;;;;;;;5.35;3.08;;;11.30;99.90;;;;;;4917547;29;20103;-49
2022/04/19 09:19:31;;;;;;;4.10;2.63;;;11.40;99.90;;;;;;4917197;29;20233;-49
2022/04/19 09:21:58;;;;;;;6.72;3.17;;;11.50;99.90;;;;;;4913845;29;20049;-51
2022/04/19 09:24:26;;;;;;;8.07;3.05;;;11.50;99.90;;;;;;4916953;29;20044;-50
2022/04/19 09:26:54;;;;;;;6.07;3.22;;;11.70;99.90;;;;;;4917589;29;20095;-49
2022/04/19 09:29:22;;;;;;;5.30;3.03;;;11.50;99.90;;;;;;4917456;29;20051;-49
2022/04/19 09:31:52;;;;;;;5.30;2.88;;;11.50;99.90;;;;;;4909354;29;20134;-50
2022/04/19 09:34:23;;;;;;;5.00;2.95;;;11.50;99.90;;;;;;4917223;29;20044;-49
2022/04/19 09:37:08;;;;;;;5.03;2.85;;;11.60;99.90;;;;;;4917486;29;20066;-49
2022/04/19 09:39:36;;;;;;;5.85;2.63;;;11.60;99.90;;;;;;4911262;29;20382;-49
2022/04/19 09:42:06;;;;;;;4.70;2.55;;;11.50;99.90;;;;;;4913879;29;20044;-49
2022/04/19 09:44:40;;;;;;;4.25;3.00;;;11.50;99.90;;;;;;4917066;29;20047;-49
2022/04/19 09:47:08;;;;;;;6.53;3.13;;;11.40;99.90;;;;;;4913277;29;20125;-50
2022/04/19 09:49:52;;;;;;;4.30;2.80;;;11.40;99.90;;;;;;4916560;29;20458;-48
2022/04/19 09:52:22;;;;;;;5.57;3.13;;;11.60;99.90;;;;;;4917003;29;20052;-49
2022/04/19 09:55:02;;;;;;;4.88;2.65;;;11.70;99.90;;;;;;4916991;29;20494;-48
2022/04/19 09:57:35;;;;;;;5.97;2.90;;;11.80;99.90;;;;;;4910608;29;20051;-47
2022/04/19 10:00:12;;;;;;;6.30;2.63;;;12.00;99.90;;;;;;4916152;29;20103;-48
2022/04/19 10:08:19;;;;;;;6.88;3.17;;;11.80;99.90;;;;;;4916675;29;20051;-47
2022/04/19 10:10:50;;;;;;;4.80;2.78;;;11.90;99.90;;;;;;4916503;29;20118;-48
2022/04/19 10:13:19;;;;;;;6.13;2.90;;;11.80;99.90;;;;;;4913203;29;20099;-48
2022/04/19 10:15:46;;;;;;;7.75;3.08;;;11.90;99.90;;;;;;4916246;29;20564;-48
2022/04/19 10:18:13;;;;;;;4.78;2.78;;;11.90;99.90;;;;;;4910151;29;20100;-49
2022/04/19 10:20:46;;;;;;;4.97;2.63;;;12.00;99.90;;;;;;4916134;29;20089;-47
2022/04/19 10:23:15;;;;;;;7.93;2.83;;;12.00;99.90;;;;;;4914470;29;20099;-48
2022/04/19 10:25:44;;;;;;;7.15;3.03;;;12.10;99.20;;;;;;4913476;29;20485;-49
2022/04/19 10:28:13;;;;;;;3.45;2.05;;;12.10;99.10;;;;;;4914347;29;20449;-49
2022/04/19 10:30:51;;;;;;;3.72;2.30;;;12.20;98.80;;;;;;4912564;29;20144;-48
2022/04/19 10:33:51;;;;;;;3.95;2.58;;;12.30;99.60;;;;;;4915817;29;20453;-50
2022/04/19 10:36:22;;;;;;;3.53;2.33;;;12.40;98.90;;;;;;4911521;29;20052;-48
2022/04/19 10:39:11;;;;;;;6.78;2.83;;;12.50;98.00;;;;;;4911844;29;20052;-48
2022/04/19 10:41:57;;;;;;;;;;;12.50;98.00;;;;;;4915255;29;20100;-48
2022/04/19 10:44:29;;;;;;;5.53;2.45;;;12.60;98.40;;;;;;4913925;29;19923;-49
2022/04/19 10:47:12;;;;;;;8.23;2.78;;;12.90;98.60;;;;;;4915279;29;20048;-48
2022/04/19 10:49:54;;;;;;;4.65;2.65;;;13.00;98.10;;;;;;4914586;29;20321;-48
2022/04/19 10:52:36;;;;;;;7.57;2.95;;;13.00;98.60;;;;;;4913212;29;20454;-49
2022/04/19 10:55:10;;;;;;;7.10;2.80;;;12.90;98.10;;;;;;4915095;29;20052;-49
2022/04/19 11:00:34;;;;;;;9.75;3.22;;;13.10;98.50;;;;;;4913080;29;20052;-49
2022/04/19 11:03:29;;;;;;;5.85;2.80;;;13.20;97.00;;;;;;4914891;29;20513;-51
2022/04/19 11:05:57;;;;;;;4.95;2.85;;;13.40;97.70;;;;;;4914811;29;20048;-47
2022/04/19 11:08:29;;;;;;;6.15;3.10;;;13.60;97.20;;;;;;4914453;29;20044;-48
2022/04/19 11:10:56;;;;;;;6.35;3.22;;;13.60;96.50;;;;;;4911524;29;20131;-48
2022/04/19 11:13:31;;;;;;;9.88;2.92;;;13.80;97.60;;;;;;4914804;29;20040;-49
2022/04/19 11:16:00;;;;;;;7.18;2.65;;;14.00;97.40;;;;;;4914907;29;20044;-48
2022/04/19 11:18:29;;;;;;;5.78;2.70;;;14.10;95.90;;;;;;4912721;29;20036;-49
2022/04/19 11:20:58;;;;;;;8.15;2.80;;;14.10;95.50;;;;;;4913003;29;20044;-49
2022/04/19 11:23:26;;;;;;;6.13;3.20;;;14.10;95.50;;;;;;4914698;29;20044;-51
2022/04/19 11:25:54;;;;;;;4.97;2.85;;;14.20;95.80;;;;;;4914793;29;20104;-48
2022/04/19 11:28:29;;;;;;;7.13;3.33;;;14.20;95.40;;;;;;4913665;29;20096;-48
2022/04/19 11:30:55;;;;;;;5.15;3.00;;;14.30;94.70;;;;;;4913864;29;20135;-49
2022/04/19 11:33:31;;;;;;;9.55;3.45;;;14.10;95.10;;;;;;4915260;29;20051;-49
2022/04/19 11:36:02;;;;;;;4.80;3.10;;;14.30;95.30;;;;;;4915531;29;20055;-48
2022/04/19 11:38:30;;;;;;;10.68;3.58;;;14.40;94.20;;;;;;4909989;29;20036;-52
2022/04/19 11:46:44;;;;;;;6.57;3.35;;;14.40;93.70;;;;;;4914151;29;20040;-50
2022/04/19 11:49:20;;;;;;;11.15;3.88;;;14.20;93.00;;;;;;4913878;29;20054;-47
2022/04/19 11:51:49;;;;;;;8.82;3.58;;;14.30;92.90;;;;;;4914093;29;20041;-48
2022/04/19 11:54:20;;;;;;;5.95;2.97;;;14.30;94.30;;;;;;4914393;29;20047;-48
2022/04/19 11:56:59;;;;;;;5.82;3.45;;;14.20;93.50;;;;;;4913465;29;20048;-51
2022/04/19 11:59:29;;;;;;;6.53;3.20;;;14.30;93.80;;;;;;4914130;29;20055;-48
2022/04/19 12:01:57;;;;;;;8.07;3.10;;;14.40;93.20;;;;;;4914200;29;20438;-49
2022/04/19 12:04:24;;;;;;;5.40;3.20;;;14.40;93.80;;;;;;4912739;29;20040;-48
2022/04/19 12:06:53;;;;;;;4.63;3.20;;;14.30;93.50;;;;;;4914265;29;20096;-50
2022/04/19 12:09:20;;;;;;;6.40;3.90;;;14.40;93.00;;;;;;4914048;29;20048;-49
2022/04/19 12:11:48;;;;;;;6.15;3.85;;;14.40;93.10;;;;;;4913960;29;20040;-48
2022/04/19 12:14:31;;;;;;;7.80;3.60;;;14.60;93.80;;;;;;4908776;29;20100;-49
2022/04/19 12:17:01;;;;;;;7.93;3.55;;;14.80;92.00;;;;;;4914829;29;20056;-48
2022/04/19 12:19:47;;;;;;;7.97;3.75;;;14.80;91.90;;;;;;4914787;29;20048;-48
2022/04/19 12:22:20;;;;;;;6.38;3.83;;;14.70;92.00;;;;;;4918112;29;20051;-49
2022/04/19 12:24:53;;;;;;;6.70;4.10;;;14.50;92.90;;;;;;4913494;29;20037;-50
2022/04/19 12:27:35;;;;;;;6.10;4.03;;;14.40;92.40;;;;;;4918344;29;20044;-49
2022/04/19 12:30:14;;;;;;;6.55;4.07;;;14.20;92.00;;;;;;4918327;29;20103;-50
2022/04/19 12:32:59;;;;;;;7.90;3.67;;;14.20;93.50;;;;;;4914410;29;20449;-47
2022/04/19 12:35:34;;;;;;;7.30;4.60;;;14.10;92.40;;;;;;4918216;29;20048;-50
2022/04/19 12:38:13;;;;;;;8.18;4.22;;;13.80;93.20;;;;;;4918442;29;20107;-50
2022/04/19 12:40:41;;;;;;;10.20;4.40;;;13.50;93.80;;;;;;4909553;29;20413;-52
2022/04/19 12:43:07;;;;;;;10.20;5.10;;;13.20;93.30;;;;;;4918267;29;20059;-48
2022/04/19 12:45:40;;;;;;;6.72;4.72;;;13.10;93.60;;;;;;4918157;29;20048;-51
2022/04/19 12:48:16;;;;;;;9.63;4.68;;;13.10;94.00;;;;;;4918348;29;20409;-53
2022/04/19 12:50:43;;;;;;;9.50;5.18;;;13.20;93.80;;;;;;4912086;29;20059;-50
2022/04/19 12:53:28;;;;;;;10.10;4.95;;;13.20;95.10;;;;;;4918367;29;20071;-48
2022/04/19 12:55:54;;;;;;;10.43;4.90;;;13.30;94.00;;;;;;4918129;29;20497;-51
2022/04/19 12:58:21;;;;;;;8.15;4.47;;;13.20;94.30;;;;;;4915061;29;20056;-48
2022/04/19 13:00:48;;;;;;;8.73;5.03;;;13.10;94.20;;;;;;4917521;29;20066;-48
2022/04/19 13:03:16;;;;;;;10.45;4.72;;;13.10;94.90;;;;;;4918289;29;20048;-49
2022/04/19 13:14:02;;;;;;;8.60;5.47;;;13.10;94.90;;;;;;4907604;29;20085;-49
2022/04/19 13:16:30;;;;;;;8.88;5.47;;;13.40;95.40;;;;;;4911243;29;20438;-48
2022/04/19 13:18:57;;;;;;;8.93;5.47;;;13.40;94.30;;;;;;4916638;29;20112;-48
2022/04/19 13:21:26;;;;;;;12.10;5.80;;;13.40;94.40;;;;;;4916508;29;20051;-49
2022/04/19 13:24:02;;;;;;;9.80;5.47;;;13.30;95.30;;;;;;4916798;29;20040;-48
2022/04/19 13:26:31;;;;;;;12.23;6.18;;;13.30;94.40;;;;;;4916607;29;20044;-50
2022/04/19 13:29:02;;;;;;;8.88;5.80;;;13.20;94.90;;;;;;4916893;29;20071;-49
2022/04/19 13:31:29;;;;;;;14.15;6.13;;;13.20;94.40;;;;;;4913336;29;20044;-52
2022/04/19 13:33:55;;;;;;;10.70;6.00;;;13.10;94.40;;;;;;4916591;29;20071;-48
2022/04/19 13:36:24;;;;;;;9.50;6.07;;;13.10;94.70;;;;;;4916552;29;20056;-48
2022/04/19 13:38:50;;;;;;;10.90;5.57;;;13.10;94.20;;;;;;4916628;29;20052;-48
2022/04/19 13:41:17;;;;;;;9.00;5.55;;;13.20;95.20;;;;;;4915287;29;20394;-53
2022/04/19 13:43:45;;;;;;;10.45;5.75;;;13.20;95.00;;;;;;4916660;29;20036;-49
2022/04/19 13:46:12;;;;;;;10.05;6.40;;;13.30;94.40;;;;;;4916324;29;20099;-48
2022/04/19 13:48:39;;;;;;;9.40;5.97;;;13.30;93.70;;;;;;4916134;29;20072;-50
2022/04/19 13:51:06;;;;;;;11.02;6.10;;;13.40;94.80;;;;;;4914321;29;20084;-50
2022/04/19 13:53:33;;;;;;;11.73;5.85;;;13.40;94.20;;;;;;4917059;29;20048;-48
2022/04/19 13:55:59;;;;;;;9.02;5.90;;;13.40;95.30;;;;;;4916122;29;20108;-48
2022/04/19 13:58:26;;;;;;;13.50;5.80;;;13.40;93.90;;;;;;4916400;29;20103;-49